sensor_id;sensor_type;location;lat;lon;timestamp;P1;durP1;ratioP1;P2;durP2;ratioP2
59854;SDS011;45732;52.850;6.896;2023-04-25T00:02:18;18.08;;;4.45;;
59854;SDS011;45732;52.850;6.896;2023-04-25T00:04:44;21.10;;;4.82;;
59854;SDS011;45732;52.850;6.896;2023-04-25T00:07:10;22.77;;;4.63;;
59854;SDS011;45732;52.850;6.896;2023-04-25T00:09:36;20.13;;;4.47;;
59854;SDS011;45732;52.850;6.896;2023-04-25T00:12:02;20.80;;;4.88;;
59854;SDS011;45732;52.850;6.896;2023-04-25T00:14:28;21.83;;;4.82;;
59854;SDS011;45732;52.850;6.896;2023-04-25T00:16:55;22.63;;;4.75;;
59854;SDS011;45732;52.850;6.896;2023-04-25T00:19:21;21.92;;;4.80;;
59854;SDS011;45732;52.850;6.896;2023-04-25T00:21:46;23.05;;;4.78;;
59854;SDS011;45732;52.850;6.896;2023-04-25T00:24:12;16.80;;;4.90;;
59854;SDS011;45732;52.850;6.896;2023-04-25T00:26:38;22.20;;;5.05;;
59854;SDS011;45732;52.850;6.896;2023-04-25T00:29:04;22.35;;;4.70;;
59854;SDS011;45732;52.850;6.896;2023-04-25T00:31:30;19.83;;;4.35;;
59854;SDS011;45732;52.850;6.896;2023-04-25T00:33:55;22.30;;;4.63;;
59854;SDS011;45732;52.850;6.896;2023-04-25T00:36:21;20.15;;;4.55;;
59854;SDS011;45732;52.850;6.896;2023-04-25T00:38:47;23.83;;;5.93;;
59854;SDS011;45732;52.850;6.896;2023-04-25T00:41:13;19.55;;;4.63;;
59854;SDS011;45732;52.850;6.896;2023-04-25T00:43:39;21.35;;;4.47;;
59854;SDS011;45732;52.850;6.896;2023-04-25T00:46:05;18.08;;;4.90;;
59854;SDS011;45732;52.850;6.896;2023-04-25T00:48:31;20.48;;;5.28;;
59854;SDS011;45732;52.850;6.896;2023-04-25T00:50:58;21.23;;;4.93;;
59854;SDS011;45732;52.850;6.896;2023-04-25T00:53:24;18.58;;;4.45;;
59854;SDS011;45732;52.850;6.896;2023-04-25T00:55:53;19.65;;;4.88;;
59854;SDS011;45732;52.850;6.896;2023-04-25T00:58:20;22.95;;;4.90;;
59854;SDS011;45732;52.850;6.896;2023-04-25T01:00:47;23.00;;;4.97;;
59854;SDS011;45732;52.850;6.896;2023-04-25T01:03:14;20.48;;;5.38;;
59854;SDS011;45732;52.850;6.896;2023-04-25T01:05:45;20.02;;;4.60;;
59854;SDS011;45732;52.850;6.896;2023-04-25T01:08:12;24.40;;;5.00;;
59854;SDS011;45732;52.850;6.896;2023-04-25T01:10:38;16.02;;;3.97;;
59854;SDS011;45732;52.850;6.896;2023-04-25T01:13:04;21.38;;;4.68;;
59854;SDS011;45732;52.850;6.896;2023-04-25T01:15:30;19.83;;;5.20;;
59854;SDS011;45732;52.850;6.896;2023-04-25T01:17:55;21.88;;;4.82;;
59854;SDS011;45732;52.850;6.896;2023-04-25T01:20:23;21.10;;;5.30;;
59854;SDS011;45732;52.850;6.896;2023-04-25T01:22:52;16.70;;;4.53;;
59854;SDS011;45732;52.850;6.896;2023-04-25T01:25:20;19.05;;;4.93;;
59854;SDS011;45732;52.850;6.896;2023-04-25T01:27:46;21.77;;;5.20;;
59854;SDS011;45732;52.850;6.896;2023-04-25T01:30:12;16.83;;;4.40;;
59854;SDS011;45732;52.850;6.896;2023-04-25T01:32:38;20.02;;;4.50;;
59854;SDS011;45732;52.850;6.896;2023-04-25T01:35:07;23.27;;;4.97;;
59854;SDS011;45732;52.850;6.896;2023-04-25T01:37:40;17.85;;;5.03;;
59854;SDS011;45732;52.850;6.896;2023-04-25T01:40:07;21.40;;;4.57;;
59854;SDS011;45732;52.850;6.896;2023-04-25T01:42:36;21.63;;;4.95;;
59854;SDS011;45732;52.850;6.896;2023-04-25T01:45:03;17.85;;;4.45;;
59854;SDS011;45732;52.850;6.896;2023-04-25T01:47:29;15.13;;;4.47;;
59854;SDS011;45732;52.850;6.896;2023-04-25T01:49:55;17.52;;;5.05;;
59854;SDS011;45732;52.850;6.896;2023-04-25T01:52:21;21.88;;;4.70;;
59854;SDS011;45732;52.850;6.896;2023-04-25T01:54:46;20.55;;;4.78;;
59854;SDS011;45732;52.850;6.896;2023-04-25T01:57:13;23.23;;;4.95;;
59854;SDS011;45732;52.850;6.896;2023-04-25T01:59:39;19.98;;;4.82;;
59854;SDS011;45732;52.850;6.896;2023-04-25T02:02:05;17.20;;;4.68;;
59854;SDS011;45732;52.850;6.896;2023-04-25T02:04:31;17.13;;;4.28;;
59854;SDS011;45732;52.850;6.896;2023-04-25T02:06:58;18.77;;;4.32;;
59854;SDS011;45732;52.850;6.896;2023-04-25T02:09:23;20.83;;;5.57;;
59854;SDS011;45732;52.850;6.896;2023-04-25T02:11:49;17.75;;;4.93;;
59854;SDS011;45732;52.850;6.896;2023-04-25T02:14:15;20.00;;;4.90;;
59854;SDS011;45732;52.850;6.896;2023-04-25T02:16:41;19.67;;;4.80;;
59854;SDS011;45732;52.850;6.896;2023-04-25T02:19:09;16.88;;;5.18;;
59854;SDS011;45732;52.850;6.896;2023-04-25T02:21:35;15.88;;;4.72;;
59854;SDS011;45732;52.850;6.896;2023-04-25T02:24:01;19.00;;;4.75;;
59854;SDS011;45732;52.850;6.896;2023-04-25T02:26:27;19.38;;;5.15;;
59854;SDS011;45732;52.850;6.896;2023-04-25T02:28:53;19.60;;;4.72;;
59854;SDS011;45732;52.850;6.896;2023-04-25T02:31:19;20.45;;;5.10;;
59854;SDS011;45732;52.850;6.896;2023-04-25T02:33:45;17.13;;;4.20;;
59854;SDS011;45732;52.850;6.896;2023-04-25T02:36:11;20.90;;;4.80;;
59854;SDS011;45732;52.850;6.896;2023-04-25T02:38:37;19.08;;;4.40;;
59854;SDS011;45732;52.850;6.896;2023-04-25T02:41:03;16.35;;;3.83;;
59854;SDS011;45732;52.850;6.896;2023-04-25T02:43:29;18.77;;;4.70;;
59854;SDS011;45732;52.850;6.896;2023-04-25T02:45:54;21.50;;;4.72;;
59854;SDS011;45732;52.850;6.896;2023-04-25T02:48:20;17.67;;;4.22;;
59854;SDS011;45732;52.850;6.896;2023-04-25T02:50:46;17.30;;;4.18;;
59854;SDS011;45732;52.850;6.896;2023-04-25T02:53:11;19.30;;;4.45;;
59854;SDS011;45732;52.850;6.896;2023-04-25T02:55:37;21.27;;;4.60;;
59854;SDS011;45732;52.850;6.896;2023-04-25T02:58:04;17.60;;;4.60;;
59854;SDS011;45732;52.850;6.896;2023-04-25T03:00:30;18.45;;;4.18;;
59854;SDS011;45732;52.850;6.896;2023-04-25T03:02:56;15.68;;;4.68;;
59854;SDS011;45732;52.850;6.896;2023-04-25T03:05:21;19.35;;;4.28;;
59854;SDS011;45732;52.850;6.896;2023-04-25T03:07:47;16.02;;;3.80;;
59854;SDS011;45732;52.850;6.896;2023-04-25T03:10:13;17.17;;;4.43;;
59854;SDS011;45732;52.850;6.896;2023-04-25T03:12:38;16.88;;;4.32;;
59854;SDS011;45732;52.850;6.896;2023-04-25T03:15:04;19.27;;;4.10;;
59854;SDS011;45732;52.850;6.896;2023-04-25T03:17:30;20.10;;;4.18;;
59854;SDS011;45732;52.850;6.896;2023-04-25T03:19:57;21.90;;;4.60;;
59854;SDS011;45732;52.850;6.896;2023-04-25T03:22:23;15.00;;;3.67;;
59854;SDS011;45732;52.850;6.896;2023-04-25T03:24:49;14.65;;;4.00;;
59854;SDS011;45732;52.850;6.896;2023-04-25T03:27:15;20.20;;;4.57;;
59854;SDS011;45732;52.850;6.896;2023-04-25T03:29:41;18.98;;;3.95;;
59854;SDS011;45732;52.850;6.896;2023-04-25T03:32:07;18.00;;;4.00;;
59854;SDS011;45732;52.850;6.896;2023-04-25T03:34:32;23.73;;;5.00;;
59854;SDS011;45732;52.850;6.896;2023-04-25T03:36:58;19.80;;;4.63;;
59854;SDS011;45732;52.850;6.896;2023-04-25T03:39:25;15.23;;;3.45;;
59854;SDS011;45732;52.850;6.896;2023-04-25T03:41:50;18.13;;;3.83;;
59854;SDS011;45732;52.850;6.896;2023-04-25T03:44:16;15.77;;;3.72;;
59854;SDS011;45732;52.850;6.896;2023-04-25T03:46:42;15.13;;;3.53;;
59854;SDS011;45732;52.850;6.896;2023-04-25T03:49:08;18.13;;;3.78;;
59854;SDS011;45732;52.850;6.896;2023-04-25T03:51:33;18.23;;;4.32;;
59854;SDS011;45732;52.850;6.896;2023-04-25T03:53:59;15.75;;;3.35;;
59854;SDS011;45732;52.850;6.896;2023-04-25T03:56:25;19.02;;;3.90;;
59854;SDS011;45732;52.850;6.896;2023-04-25T03:58:51;18.05;;;3.78;;
59854;SDS011;45732;52.850;6.896;2023-04-25T04:01:16;16.92;;;3.40;;
59854;SDS011;45732;52.850;6.896;2023-04-25T04:03:42;18.40;;;3.95;;
59854;SDS011;45732;52.850;6.896;2023-04-25T04:06:08;14.55;;;3.72;;
59854;SDS011;45732;52.850;6.896;2023-04-25T04:08:34;15.57;;;4.35;;
59854;SDS011;45732;52.850;6.896;2023-04-25T04:11:00;16.05;;;4.07;;
59854;SDS011;45732;52.850;6.896;2023-04-25T04:13:26;18.00;;;3.92;;
59854;SDS011;45732;52.850;6.896;2023-04-25T04:15:52;18.65;;;4.00;;
59854;SDS011;45732;52.850;6.896;2023-04-25T04:18:19;16.48;;;3.15;;
59854;SDS011;45732;52.850;6.896;2023-04-25T04:20:44;15.93;;;3.90;;
59854;SDS011;45732;52.850;6.896;2023-04-25T04:23:10;18.48;;;3.58;;
59854;SDS011;45732;52.850;6.896;2023-04-25T04:25:36;17.33;;;4.25;;
59854;SDS011;45732;52.850;6.896;2023-04-25T04:28:02;15.85;;;3.40;;
59854;SDS011;45732;52.850;6.896;2023-04-25T04:30:28;18.50;;;3.85;;
59854;SDS011;45732;52.850;6.896;2023-04-25T04:32:57;16.95;;;3.85;;
59854;SDS011;45732;52.850;6.896;2023-04-25T04:35:23;16.52;;;3.70;;
59854;SDS011;45732;52.850;6.896;2023-04-25T04:37:49;14.43;;;3.22;;
59854;SDS011;45732;52.850;6.896;2023-04-25T04:40:15;15.00;;;3.53;;
59854;SDS011;45732;52.850;6.896;2023-04-25T04:42:42;17.15;;;3.28;;
59854;SDS011;45732;52.850;6.896;2023-04-25T04:45:08;20.83;;;3.35;;
59854;SDS011;45732;52.850;6.896;2023-04-25T04:47:35;16.73;;;2.95;;
59854;SDS011;45732;52.850;6.896;2023-04-25T04:50:02;14.43;;;3.03;;
59854;SDS011;45732;52.850;6.896;2023-04-25T04:52:29;13.77;;;3.00;;
59854;SDS011;45732;52.850;6.896;2023-04-25T04:54:55;15.82;;;3.05;;
59854;SDS011;45732;52.850;6.896;2023-04-25T04:57:21;17.05;;;3.00;;
59854;SDS011;45732;52.850;6.896;2023-04-25T04:59:47;10.80;;;2.42;;
59854;SDS011;45732;52.850;6.896;2023-04-25T05:02:13;12.32;;;2.53;;
59854;SDS011;45732;52.850;6.896;2023-04-25T05:04:38;11.70;;;2.45;;
59854;SDS011;45732;52.850;6.896;2023-04-25T05:07:04;10.75;;;2.45;;
59854;SDS011;45732;52.850;6.896;2023-04-25T05:09:30;10.07;;;2.42;;
59854;SDS011;45732;52.850;6.896;2023-04-25T05:11:56;10.73;;;2.38;;
59854;SDS011;45732;52.850;6.896;2023-04-25T05:14:21;10.65;;;2.00;;
59854;SDS011;45732;52.850;6.896;2023-04-25T05:16:48;11.75;;;2.28;;
59854;SDS011;45732;52.850;6.896;2023-04-25T05:19:14;10.95;;;2.08;;
59854;SDS011;45732;52.850;6.896;2023-04-25T05:21:39;9.73;;;2.10;;
59854;SDS011;45732;52.850;6.896;2023-04-25T05:24:05;13.18;;;2.38;;
59854;SDS011;45732;52.850;6.896;2023-04-25T05:26:31;9.30;;;1.98;;
59854;SDS011;45732;52.850;6.896;2023-04-25T05:28:57;11.23;;;2.20;;
59854;SDS011;45732;52.850;6.896;2023-04-25T05:31:23;11.70;;;2.25;;
59854;SDS011;45732;52.850;6.896;2023-04-25T05:33:48;12.80;;;2.45;;
59854;SDS011;45732;52.850;6.896;2023-04-25T05:36:14;10.98;;;2.38;;
59854;SDS011;45732;52.850;6.896;2023-04-25T05:38:40;10.10;;;2.55;;
59854;SDS011;45732;52.850;6.896;2023-04-25T05:41:05;9.60;;;1.88;;
59854;SDS011;45732;52.850;6.896;2023-04-25T05:43:32;9.18;;;2.17;;
59854;SDS011;45732;52.850;6.896;2023-04-25T05:45:58;13.35;;;2.50;;
59854;SDS011;45732;52.850;6.896;2023-04-25T05:48:24;9.80;;;2.25;;
59854;SDS011;45732;52.850;6.896;2023-04-25T05:50:50;16.17;;;2.67;;
59854;SDS011;45732;52.850;6.896;2023-04-25T05:53:16;13.02;;;2.45;;
59854;SDS011;45732;52.850;6.896;2023-04-25T05:55:42;14.65;;;2.40;;
59854;SDS011;45732;52.850;6.896;2023-04-25T05:58:08;9.52;;;2.13;;
59854;SDS011;45732;52.850;6.896;2023-04-25T06:00:34;10.98;;;2.13;;
59854;SDS011;45732;52.850;6.896;2023-04-25T06:02:59;9.60;;;2.25;;
59854;SDS011;45732;52.850;6.896;2023-04-25T06:05:26;12.13;;;2.25;;
59854;SDS011;45732;52.850;6.896;2023-04-25T06:07:51;12.68;;;2.65;;
59854;SDS011;45732;52.850;6.896;2023-04-25T06:10:17;11.60;;;2.00;;
59854;SDS011;45732;52.850;6.896;2023-04-25T06:12:43;11.82;;;2.33;;
59854;SDS011;45732;52.850;6.896;2023-04-25T06:15:09;11.05;;;2.40;;
59854;SDS011;45732;52.850;6.896;2023-04-25T06:17:35;13.15;;;2.33;;
59854;SDS011;45732;52.850;6.896;2023-04-25T06:20:01;11.23;;;2.25;;
59854;SDS011;45732;52.850;6.896;2023-04-25T06:22:28;14.35;;;2.67;;
59854;SDS011;45732;52.850;6.896;2023-04-25T06:24:54;11.55;;;3.25;;
59854;SDS011;45732;52.850;6.896;2023-04-25T06:27:22;9.48;;;2.10;;
59854;SDS011;45732;52.850;6.896;2023-04-25T06:29:48;12.98;;;2.53;;
59854;SDS011;45732;52.850;6.896;2023-04-25T06:32:13;12.45;;;2.40;;
59854;SDS011;45732;52.850;6.896;2023-04-25T06:34:39;13.27;;;2.42;;
59854;SDS011;45732;52.850;6.896;2023-04-25T06:37:05;13.48;;;2.58;;
59854;SDS011;45732;52.850;6.896;2023-04-25T06:39:30;12.48;;;2.30;;
59854;SDS011;45732;52.850;6.896;2023-04-25T06:41:56;13.57;;;2.40;;
59854;SDS011;45732;52.850;6.896;2023-04-25T06:44:22;10.82;;;2.80;;
59854;SDS011;45732;52.850;6.896;2023-04-25T06:46:49;14.20;;;2.67;;
59854;SDS011;45732;52.850;6.896;2023-04-25T06:49:15;14.52;;;2.90;;
59854;SDS011;45732;52.850;6.896;2023-04-25T06:51:40;11.93;;;2.55;;
59854;SDS011;45732;52.850;6.896;2023-04-25T06:54:06;17.67;;;4.38;;
59854;SDS011;45732;52.850;6.896;2023-04-25T06:56:32;13.88;;;2.50;;
59854;SDS011;45732;52.850;6.896;2023-04-25T06:58:57;15.10;;;2.75;;
59854;SDS011;45732;52.850;6.896;2023-04-25T07:01:25;9.13;;;2.40;;
59854;SDS011;45732;52.850;6.896;2023-04-25T07:03:51;12.82;;;2.92;;
59854;SDS011;45732;52.850;6.896;2023-04-25T07:06:16;12.18;;;2.20;;
59854;SDS011;45732;52.850;6.896;2023-04-25T07:08:42;10.07;;;2.08;;
59854;SDS011;45732;52.850;6.896;2023-04-25T07:11:08;13.68;;;2.65;;
59854;SDS011;45732;52.850;6.896;2023-04-25T07:13:34;9.98;;;2.35;;
59854;SDS011;45732;52.850;6.896;2023-04-25T07:15:59;12.10;;;2.67;;
59854;SDS011;45732;52.850;6.896;2023-04-25T07:18:25;11.48;;;2.15;;
59854;SDS011;45732;52.850;6.896;2023-04-25T07:20:51;14.18;;;2.47;;
59854;SDS011;45732;52.850;6.896;2023-04-25T07:23:16;12.85;;;2.65;;
59854;SDS011;45732;52.850;6.896;2023-04-25T07:25:42;10.15;;;2.00;;
59854;SDS011;45732;52.850;6.896;2023-04-25T07:28:08;10.95;;;2.42;;
59854;SDS011;45732;52.850;6.896;2023-04-25T07:30:34;9.93;;;2.53;;
59854;SDS011;45732;52.850;6.896;2023-04-25T07:33:00;14.00;;;3.22;;
59854;SDS011;45732;52.850;6.896;2023-04-25T07:35:25;12.35;;;2.70;;
59854;SDS011;45732;52.850;6.896;2023-04-25T07:37:51;10.35;;;2.40;;
59854;SDS011;45732;52.850;6.896;2023-04-25T07:40:17;11.25;;;2.20;;
59854;SDS011;45732;52.850;6.896;2023-04-25T07:42:42;9.82;;;2.72;;
59854;SDS011;45732;52.850;6.896;2023-04-25T07:45:08;8.43;;;2.10;;
59854;SDS011;45732;52.850;6.896;2023-04-25T07:47:34;11.63;;;2.33;;
59854;SDS011;45732;52.850;6.896;2023-04-25T07:50:01;11.25;;;2.92;;
59854;SDS011;45732;52.850;6.896;2023-04-25T07:52:27;13.27;;;2.15;;
59854;SDS011;45732;52.850;6.896;2023-04-25T07:54:53;9.70;;;2.17;;
59854;SDS011;45732;52.850;6.896;2023-04-25T07:57:19;8.70;;;1.90;;
59854;SDS011;45732;52.850;6.896;2023-04-25T07:59:45;10.00;;;2.10;;
59854;SDS011;45732;52.850;6.896;2023-04-25T08:02:11;11.57;;;2.17;;
59854;SDS011;45732;52.850;6.896;2023-04-25T08:04:37;9.93;;;1.70;;
59854;SDS011;45732;52.850;6.896;2023-04-25T08:07:02;13.20;;;1.80;;
59854;SDS011;45732;52.850;6.896;2023-04-25T08:09:28;9.95;;;1.70;;
59854;SDS011;45732;52.850;6.896;2023-04-25T08:11:54;7.95;;;2.10;;
59854;SDS011;45732;52.850;6.896;2023-04-25T08:14:20;9.65;;;2.17;;
59854;SDS011;45732;52.850;6.896;2023-04-25T08:16:45;9.70;;;2.17;;
59854;SDS011;45732;52.850;6.896;2023-04-25T08:19:11;8.38;;;1.85;;
59854;SDS011;45732;52.850;6.896;2023-04-25T08:21:37;8.38;;;2.25;;
59854;SDS011;45732;52.850;6.896;2023-04-25T08:24:03;9.80;;;1.95;;
59854;SDS011;45732;52.850;6.896;2023-04-25T08:26:29;6.88;;;1.80;;
59854;SDS011;45732;52.850;6.896;2023-04-25T08:28:54;9.52;;;1.95;;
59854;SDS011;45732;52.850;6.896;2023-04-25T08:31:20;8.98;;;1.70;;
59854;SDS011;45732;52.850;6.896;2023-04-25T08:33:46;8.02;;;1.30;;
59854;SDS011;45732;52.850;6.896;2023-04-25T08:36:12;10.20;;;2.03;;
59854;SDS011;45732;52.850;6.896;2023-04-25T08:38:37;9.02;;;1.30;;
59854;SDS011;45732;52.850;6.896;2023-04-25T08:41:03;7.07;;;1.35;;
59854;SDS011;45732;52.850;6.896;2023-04-25T08:43:31;9.82;;;1.58;;
59854;SDS011;45732;52.850;6.896;2023-04-25T08:46:00;5.68;;;1.48;;
59854;SDS011;45732;52.850;6.896;2023-04-25T08:48:29;8.57;;;1.45;;
59854;SDS011;45732;52.850;6.896;2023-04-25T08:50:59;8.32;;;1.50;;
59854;SDS011;45732;52.850;6.896;2023-04-25T08:53:29;6.97;;;1.75;;
59854;SDS011;45732;52.850;6.896;2023-04-25T08:55:57;9.90;;;1.88;;
59854;SDS011;45732;52.850;6.896;2023-04-25T08:58:24;7.18;;;1.50;;
59854;SDS011;45732;52.850;6.896;2023-04-25T09:00:50;9.82;;;1.80;;
59854;SDS011;45732;52.850;6.896;2023-04-25T09:03:17;8.13;;;1.63;;
59854;SDS011;45732;52.850;6.896;2023-04-25T09:05:42;7.80;;;1.95;;
59854;SDS011;45732;52.850;6.896;2023-04-25T09:08:08;5.20;;;1.33;;
59854;SDS011;45732;52.850;6.896;2023-04-25T09:10:35;8.75;;;1.77;;
59854;SDS011;45732;52.850;6.896;2023-04-25T09:13:01;9.85;;;1.88;;
59854;SDS011;45732;52.850;6.896;2023-04-25T09:15:31;8.07;;;1.90;;
59854;SDS011;45732;52.850;6.896;2023-04-25T09:17:57;8.55;;;1.50;;
59854;SDS011;45732;52.850;6.896;2023-04-25T09:20:24;8.10;;;1.73;;
59854;SDS011;45732;52.850;6.896;2023-04-25T09:23:03;7.18;;;1.55;;
59854;SDS011;45732;52.850;6.896;2023-04-25T09:25:35;7.07;;;1.77;;
59854;SDS011;45732;52.850;6.896;2023-04-25T09:28:05;10.30;;;1.52;;
59854;SDS011;45732;52.850;6.896;2023-04-25T09:30:35;9.32;;;1.40;;
59854;SDS011;45732;52.850;6.896;2023-04-25T09:33:07;7.13;;;1.17;;
59854;SDS011;45732;52.850;6.896;2023-04-25T09:35:39;5.13;;;1.33;;
59854;SDS011;45732;52.850;6.896;2023-04-25T09:38:10;6.05;;;1.13;;
59854;SDS011;45732;52.850;6.896;2023-04-25T09:40:44;7.35;;;1.30;;
59854;SDS011;45732;52.850;6.896;2023-04-25T09:45:47;4.95;;;1.30;;
59854;SDS011;45732;52.850;6.896;2023-04-25T09:48:22;5.25;;;1.08;;
59854;SDS011;45732;52.850;6.896;2023-04-25T09:51:09;4.93;;;1.23;;
59854;SDS011;45732;52.850;6.896;2023-04-25T09:53:37;4.40;;;1.00;;
59854;SDS011;45732;52.850;6.896;2023-04-25T09:56:06;4.65;;;1.25;;
59854;SDS011;45732;52.850;6.896;2023-04-25T09:58:34;4.68;;;1.23;;
59854;SDS011;45732;52.850;6.896;2023-04-25T10:01:04;8.18;;;1.55;;
59854;SDS011;45732;52.850;6.896;2023-04-25T10:03:33;4.10;;;1.30;;
59854;SDS011;45732;52.850;6.896;2023-04-25T10:06:01;6.50;;;1.20;;
59854;SDS011;45732;52.850;6.896;2023-04-25T10:08:33;6.70;;;1.20;;
59854;SDS011;45732;52.850;6.896;2023-04-25T10:11:01;6.03;;;1.20;;
59854;SDS011;45732;52.850;6.896;2023-04-25T10:13:32;6.55;;;1.40;;
59854;SDS011;45732;52.850;6.896;2023-04-25T10:16:00;7.45;;;1.50;;
59854;SDS011;45732;52.850;6.896;2023-04-25T10:18:28;8.88;;;1.73;;
59854;SDS011;45732;52.850;6.896;2023-04-25T10:20:55;10.68;;;1.55;;
59854;SDS011;45732;52.850;6.896;2023-04-25T10:23:25;9.02;;;1.60;;
59854;SDS011;45732;52.850;6.896;2023-04-25T10:25:52;7.88;;;1.75;;
59854;SDS011;45732;52.850;6.896;2023-04-25T10:28:19;6.47;;;1.40;;
59854;SDS011;45732;52.850;6.896;2023-04-25T10:31:01;8.82;;;1.80;;
59854;SDS011;45732;52.850;6.896;2023-04-25T10:33:36;9.50;;;1.30;;
59854;SDS011;45732;52.850;6.896;2023-04-25T10:36:12;6.40;;;1.30;;
59854;SDS011;45732;52.850;6.896;2023-04-25T10:38:41;8.38;;;1.73;;
59854;SDS011;45732;52.850;6.896;2023-04-25T10:41:08;8.02;;;1.92;;
59854;SDS011;45732;52.850;6.896;2023-04-25T10:43:36;4.25;;;1.33;;
59854;SDS011;45732;52.850;6.896;2023-04-25T10:48:54;6.65;;;1.48;;
59854;SDS011;45732;52.850;6.896;2023-04-25T10:56:38;5.75;;;1.30;;
59854;SDS011;45732;52.850;6.896;2023-04-25T10:59:13;6.32;;;1.50;;
59854;SDS011;45732;52.850;6.896;2023-04-25T11:01:44;8.60;;;1.73;;
59854;SDS011;45732;52.850;6.896;2023-04-25T11:09:27;10.45;;;2.08;;
59854;SDS011;45732;52.850;6.896;2023-04-25T11:11:56;10.90;;;1.60;;
59854;SDS011;45732;52.850;6.896;2023-04-25T11:14:23;8.05;;;1.80;;
59854;SDS011;45732;52.850;6.896;2023-04-25T11:16:56;6.50;;;1.75;;
59854;SDS011;45732;52.850;6.896;2023-04-25T11:19:23;9.15;;;1.88;;
59854;SDS011;45732;52.850;6.896;2023-04-25T11:21:50;7.55;;;1.70;;
59854;SDS011;45732;52.850;6.896;2023-04-25T11:24:16;8.30;;;1.90;;
59854;SDS011;45732;52.850;6.896;2023-04-25T11:26:51;10.63;;;1.85;;
59854;SDS011;45732;52.850;6.896;2023-04-25T11:29:17;10.60;;;2.45;;
59854;SDS011;45732;52.850;6.896;2023-04-25T11:31:43;9.70;;;2.40;;
59854;SDS011;45732;52.850;6.896;2023-04-25T11:34:10;7.53;;;1.80;;
59854;SDS011;45732;52.850;6.896;2023-04-25T11:36:36;9.63;;;2.67;;
59854;SDS011;45732;52.850;6.896;2023-04-25T11:39:03;9.55;;;1.83;;
59854;SDS011;45732;52.850;6.896;2023-04-25T11:41:31;7.40;;;1.55;;
59854;SDS011;45732;52.850;6.896;2023-04-25T11:43:56;6.63;;;1.30;;
59854;SDS011;45732;52.850;6.896;2023-04-25T11:46:22;7.97;;;1.45;;
59854;SDS011;45732;52.850;6.896;2023-04-25T11:48:48;4.40;;;1.27;;
59854;SDS011;45732;52.850;6.896;2023-04-25T11:51:15;6.45;;;1.40;;
59854;SDS011;45732;52.850;6.896;2023-04-25T11:53:41;6.00;;;1.27;;
59854;SDS011;45732;52.850;6.896;2023-04-25T11:56:10;5.82;;;1.25;;
59854;SDS011;45732;52.850;6.896;2023-04-25T11:58:54;5.65;;;1.15;;
59854;SDS011;45732;52.850;6.896;2023-04-25T12:01:29;8.55;;;1.40;;
59854;SDS011;45732;52.850;6.896;2023-04-25T12:03:56;6.45;;;1.20;;
59854;SDS011;45732;52.850;6.896;2023-04-25T12:06:28;3.83;;;1.05;;
59854;SDS011;45732;52.850;6.896;2023-04-25T12:09:00;5.57;;;1.50;;
59854;SDS011;45732;52.850;6.896;2023-04-25T12:11:32;9.55;;;1.38;;
59854;SDS011;45732;52.850;6.896;2023-04-25T12:14:04;8.57;;;1.42;;
59854;SDS011;45732;52.850;6.896;2023-04-25T12:16:39;5.38;;;1.10;;
59854;SDS011;45732;52.850;6.896;2023-04-25T12:19:05;6.57;;;1.60;;
59854;SDS011;45732;52.850;6.896;2023-04-25T12:21:32;6.43;;;1.33;;
59854;SDS011;45732;52.850;6.896;2023-04-25T12:24:09;9.02;;;1.38;;
59854;SDS011;45732;52.850;6.896;2023-04-25T12:26:52;8.30;;;1.73;;
59854;SDS011;45732;52.850;6.896;2023-04-25T12:29:22;8.60;;;1.55;;
59854;SDS011;45732;52.850;6.896;2023-04-25T12:31:49;10.20;;;1.73;;
59854;SDS011;45732;52.850;6.896;2023-04-25T12:34:16;8.73;;;1.63;;
59854;SDS011;45732;52.850;6.896;2023-04-25T12:36:42;7.88;;;1.58;;
59854;SDS011;45732;52.850;6.896;2023-04-25T12:39:08;8.95;;;1.90;;
59854;SDS011;45732;52.850;6.896;2023-04-25T12:41:40;10.88;;;1.73;;
59854;SDS011;45732;52.850;6.896;2023-04-25T12:44:06;9.70;;;1.83;;
59854;SDS011;45732;52.850;6.896;2023-04-25T12:46:32;8.93;;;2.22;;
59854;SDS011;45732;52.850;6.896;2023-04-25T12:48:57;9.93;;;1.95;;
59854;SDS011;45732;52.850;6.896;2023-04-25T12:51:23;11.65;;;2.28;;
59854;SDS011;45732;52.850;6.896;2023-04-25T12:53:50;7.28;;;1.67;;
59854;SDS011;45732;52.850;6.896;2023-04-25T12:56:17;10.05;;;2.10;;
59854;SDS011;45732;52.850;6.896;2023-04-25T12:58:43;10.02;;;2.00;;
59854;SDS011;45732;52.850;6.896;2023-04-25T13:01:09;5.65;;;1.48;;
59854;SDS011;45732;52.850;6.896;2023-04-25T13:03:35;11.48;;;2.33;;
59854;SDS011;45732;52.850;6.896;2023-04-25T13:06:00;8.68;;;1.95;;
59854;SDS011;45732;52.850;6.896;2023-04-25T13:08:26;8.40;;;1.95;;
59854;SDS011;45732;52.850;6.896;2023-04-25T13:10:52;8.02;;;1.80;;
59854;SDS011;45732;52.850;6.896;2023-04-25T13:13:17;7.53;;;1.63;;
59854;SDS011;45732;52.850;6.896;2023-04-25T13:15:43;8.90;;;1.85;;
59854;SDS011;45732;52.850;6.896;2023-04-25T13:18:09;8.95;;;1.73;;
59854;SDS011;45732;52.850;6.896;2023-04-25T13:20:35;9.60;;;1.50;;
59854;SDS011;45732;52.850;6.896;2023-04-25T13:23:01;9.05;;;1.58;;
59854;SDS011;45732;52.850;6.896;2023-04-25T13:25:26;12.13;;;1.70;;
59854;SDS011;45732;52.850;6.896;2023-04-25T13:27:52;8.07;;;1.70;;
59854;SDS011;45732;52.850;6.896;2023-04-25T13:30:18;7.70;;;1.50;;
59854;SDS011;45732;52.850;6.896;2023-04-25T13:32:43;5.97;;;1.70;;
59854;SDS011;45732;52.850;6.896;2023-04-25T13:35:12;9.70;;;1.63;;
59854;SDS011;45732;52.850;6.896;2023-04-25T13:37:41;8.57;;;1.70;;
59854;SDS011;45732;52.850;6.896;2023-04-25T13:40:08;7.75;;;1.50;;
59854;SDS011;45732;52.850;6.896;2023-04-25T13:42:36;5.70;;;1.10;;
59854;SDS011;45732;52.850;6.896;2023-04-25T13:45:02;7.75;;;1.80;;
59854;SDS011;45732;52.850;6.896;2023-04-25T13:47:29;5.45;;;1.55;;
59854;SDS011;45732;52.850;6.896;2023-04-25T13:49:55;5.63;;;1.23;;
59854;SDS011;45732;52.850;6.896;2023-04-25T13:52:21;9.18;;;1.75;;
59854;SDS011;45732;52.850;6.896;2023-04-25T13:54:49;6.78;;;1.38;;
59854;SDS011;45732;52.850;6.896;2023-04-25T13:57:15;6.43;;;1.95;;
59854;SDS011;45732;52.850;6.896;2023-04-25T13:59:42;9.20;;;1.90;;
59854;SDS011;45732;52.850;6.896;2023-04-25T14:02:08;7.85;;;1.73;;
59854;SDS011;45732;52.850;6.896;2023-04-25T14:04:34;9.27;;;1.85;;
59854;SDS011;45732;52.850;6.896;2023-04-25T14:07:00;7.88;;;1.75;;
59854;SDS011;45732;52.850;6.896;2023-04-25T14:09:27;6.55;;;1.50;;
59854;SDS011;45732;52.850;6.896;2023-04-25T14:11:53;6.43;;;1.27;;
59854;SDS011;45732;52.850;6.896;2023-04-25T14:14:19;8.18;;;1.50;;
59854;SDS011;45732;52.850;6.896;2023-04-25T14:16:46;5.40;;;1.20;;
59854;SDS011;45732;52.850;6.896;2023-04-25T14:19:20;6.43;;;1.30;;
59854;SDS011;45732;52.850;6.896;2023-04-25T14:21:46;6.35;;;1.30;;
59854;SDS011;45732;52.850;6.896;2023-04-25T14:24:12;6.25;;;1.20;;
59854;SDS011;45732;52.850;6.896;2023-04-25T14:26:38;5.47;;;1.17;;
59854;SDS011;45732;52.850;6.896;2023-04-25T14:29:05;7.65;;;1.52;;
59854;SDS011;45732;52.850;6.896;2023-04-25T14:31:37;6.68;;;1.52;;
59854;SDS011;45732;52.850;6.896;2023-04-25T14:34:04;11.05;;;1.83;;
59854;SDS011;45732;52.850;6.896;2023-04-25T14:36:30;14.25;;;2.78;;
59854;SDS011;45732;52.850;6.896;2023-04-25T14:38:57;9.23;;;1.83;;
59854;SDS011;45732;52.850;6.896;2023-04-25T14:41:23;8.27;;;2.10;;
59854;SDS011;45732;52.850;6.896;2023-04-25T14:43:50;5.75;;;1.55;;
59854;SDS011;45732;52.850;6.896;2023-04-25T14:46:16;8.27;;;2.00;;
59854;SDS011;45732;52.850;6.896;2023-04-25T14:48:42;7.30;;;1.85;;
59854;SDS011;45732;52.850;6.896;2023-04-25T14:51:07;4.07;;;1.20;;
59854;SDS011;45732;52.850;6.896;2023-04-25T14:53:33;6.57;;;1.70;;
59854;SDS011;45732;52.850;6.896;2023-04-25T14:55:59;8.13;;;1.70;;